sensor_id;sensor_type;location;lat;lon;timestamp;temperature;humidity
69324;DHT22;56470;47.350;8.718;2022-08-21T00:01:15;16.37;95.17
69324;DHT22;56470;47.350;8.718;2022-08-21T00:03:41;16.37;95.23
69324;DHT22;56470;47.350;8.718;2022-08-21T00:06:07;16.40;95.16
69324;DHT22;56470;47.350;8.718;2022-08-21T00:08:33;16.43;95.05
69324;DHT22;56470;47.350;8.718;2022-08-21T00:10:59;16.37;95.30
69324;DHT22;56470;47.350;8.718;2022-08-21T00:13:24;16.40;95.18
69324;DHT22;56470;47.350;8.718;2022-08-21T00:15:50;16.39;95.12
69324;DHT22;56470;47.350;8.718;2022-08-21T00:18:16;16.34;95.02
69324;DHT22;56470;47.350;8.718;2022-08-21T00:20:43;16.33;94.93
69324;DHT22;56470;47.350;8.718;2022-08-21T00:23:09;16.23;95.03
69324;DHT22;56470;47.350;8.718;2022-08-21T00:25:35;16.20;94.72
69324;DHT22;56470;47.350;8.718;2022-08-21T00:28:01;16.08;94.70
69324;DHT22;56470;47.350;8.718;2022-08-21T00:30:27;16.06;94.77
69324;DHT22;56470;47.350;8.718;2022-08-21T00:32:54;16.01;94.86
69324;DHT22;56470;47.350;8.718;2022-08-21T00:35:23;15.97;94.98
69324;DHT22;56470;47.350;8.718;2022-08-21T00:37:50;15.85;95.20
69324;DHT22;56470;47.350;8.718;2022-08-21T00:40:19;15.81;95.41
69324;DHT22;56470;47.350;8.718;2022-08-21T00:42:45;15.78;95.52
69324;DHT22;56470;47.350;8.718;2022-08-21T00:45:11;15.78;95.54
69324;DHT22;56470;47.350;8.718;2022-08-21T00:47:36;15.80;95.67
69324;DHT22;56470;47.350;8.718;2022-08-21T00:50:04;15.81;95.68
69324;DHT22;56470;47.350;8.718;2022-08-21T00:52:32;15.81;95.62
69324;DHT22;56470;47.350;8.718;2022-08-21T00:55:00;15.88;95.38
69324;DHT22;56470;47.350;8.718;2022-08-21T00:57:34;15.94;95.22
69324;DHT22;56470;47.350;8.718;2022-08-21T01:00:03;15.98;95.22
69324;DHT22;56470;47.350;8.718;2022-08-21T01:02:30;16.05;94.94
69324;DHT22;56470;47.350;8.718;2022-08-21T01:04:55;16.13;94.66
69324;DHT22;56470;47.350;8.718;2022-08-21T01:07:21;16.18;94.55
69324;DHT22;56470;47.350;8.718;2022-08-21T01:09:46;16.12;94.33
69324;DHT22;56470;47.350;8.718;2022-08-21T01:12:13;16.12;94.44
69324;DHT22;56470;47.350;8.718;2022-08-21T01:14:40;16.12;94.35
69324;DHT22;56470;47.350;8.718;2022-08-21T01:17:08;16.15;94.13
69324;DHT22;56470;47.350;8.718;2022-08-21T01:19:35;16.09;94.14
69324;DHT22;56470;47.350;8.718;2022-08-21T01:22:00;16.04;94.21
69324;DHT22;56470;47.350;8.718;2022-08-21T01:24:25;15.94;94.27
69324;DHT22;56470;47.350;8.718;2022-08-21T01:26:51;15.91;94.54
69324;DHT22;56470;47.350;8.718;2022-08-21T01:29:26;15.87;94.55
69324;DHT22;56470;47.350;8.718;2022-08-21T01:31:53;15.88;94.44
69324;DHT22;56470;47.350;8.718;2022-08-21T01:34:19;15.82;94.22
69324;DHT22;56470;47.350;8.718;2022-08-21T01:36:46;15.78;94.17
69324;DHT22;56470;47.350;8.718;2022-08-21T01:39:12;15.71;94.33
69324;DHT22;56470;47.350;8.718;2022-08-21T01:41:37;15.71;94.35
69324;DHT22;56470;47.350;8.718;2022-08-21T01:44:03;15.78;94.40
69324;DHT22;56470;47.350;8.718;2022-08-21T01:46:29;15.84;94.31
69324;DHT22;56470;47.350;8.718;2022-08-21T01:48:54;15.88;94.40
69324;DHT22;56470;47.350;8.718;2022-08-21T01:51:19;15.90;94.05
69324;DHT22;56470;47.350;8.718;2022-08-21T01:53:45;15.85;93.75
69324;DHT22;56470;47.350;8.718;2022-08-21T01:56:12;15.80;93.70
69324;DHT22;56470;47.350;8.718;2022-08-21T01:58:38;15.63;94.27
69324;DHT22;56470;47.350;8.718;2022-08-21T02:01:03;15.57;94.27
69324;DHT22;56470;47.350;8.718;2022-08-21T02:03:29;15.54;94.28
69324;DHT22;56470;47.350;8.718;2022-08-21T02:05:55;15.49;94.49
69324;DHT22;56470;47.350;8.718;2022-08-21T02:08:20;15.39;94.69
69324;DHT22;56470;47.350;8.718;2022-08-21T02:10:48;15.33;94.78
69324;DHT22;56470;47.350;8.718;2022-08-21T02:13:14;15.37;94.65
69324;DHT22;56470;47.350;8.718;2022-08-21T02:15:40;15.36;94.69
69324;DHT22;56470;47.350;8.718;2022-08-21T02:18:06;15.33;94.79
69324;DHT22;56470;47.350;8.718;2022-08-21T02:20:38;15.28;94.96
69324;DHT22;56470;47.350;8.718;2022-08-21T02:23:05;15.20;95.05
69324;DHT22;56470;47.350;8.718;2022-08-21T02:25:31;15.18;95.24
69324;DHT22;56470;47.350;8.718;2022-08-21T02:27:57;15.15;95.09
69324;DHT22;56470;47.350;8.718;2022-08-21T02:30:27;15.12;95.09
69324;DHT22;56470;47.350;8.718;2022-08-21T02:32:53;15.13;94.94
69324;DHT22;56470;47.350;8.718;2022-08-21T02:35:19;15.20;94.95
69324;DHT22;56470;47.350;8.718;2022-08-21T02:37:54;15.23;94.83
69324;DHT22;56470;47.350;8.718;2022-08-21T02:40:22;15.26;94.81
69324;DHT22;56470;47.350;8.718;2022-08-21T02:42:48;15.28;94.88
69324;DHT22;56470;47.350;8.718;2022-08-21T02:45:14;15.28;94.83
69324;DHT22;56470;47.350;8.718;2022-08-21T02:47:40;15.37;94.62
69324;DHT22;56470;47.350;8.718;2022-08-21T02:50:11;15.36;94.36
69324;DHT22;56470;47.350;8.718;2022-08-21T02:52:37;15.35;94.64
69324;DHT22;56470;47.350;8.718;2022-08-21T02:55:03;15.35;95.25
69324;DHT22;56470;47.350;8.718;2022-08-21T02:57:28;15.33;95.53
69324;DHT22;56470;47.350;8.718;2022-08-21T02:59:53;15.37;95.65
69324;DHT22;56470;47.350;8.718;2022-08-21T03:02:19;15.39;95.67
69324;DHT22;56470;47.350;8.718;2022-08-21T03:04:46;15.40;95.90
69324;DHT22;56470;47.350;8.718;2022-08-21T03:07:11;15.40;96.03
69324;DHT22;56470;47.350;8.718;2022-08-21T03:09:37;15.43;96.43
69324;DHT22;56470;47.350;8.718;2022-08-21T03:12:02;15.44;96.38
69324;DHT22;56470;47.350;8.718;2022-08-21T03:14:28;15.43;96.43
69324;DHT22;56470;47.350;8.718;2022-08-21T03:16:53;15.43;96.42
69324;DHT22;56470;47.350;8.718;2022-08-21T03:19:19;15.39;96.57
69324;DHT22;56470;47.350;8.718;2022-08-21T03:21:45;15.36;96.41
69324;DHT22;56470;47.350;8.718;2022-08-21T03:24:11;15.35;96.40
69324;DHT22;56470;47.350;8.718;2022-08-21T03:26:37;15.25;96.60
69324;DHT22;56470;47.350;8.718;2022-08-21T03:29:02;15.23;96.45
69324;DHT22;56470;47.350;8.718;2022-08-21T03:31:27;15.06;96.58
69324;DHT22;56470;47.350;8.718;2022-08-21T03:33:56;15.16;96.70
69324;DHT22;56470;47.350;8.718;2022-08-21T03:36:22;14.99;96.93
69324;DHT22;56470;47.350;8.718;2022-08-21T03:38:48;14.83;97.61
69324;DHT22;56470;47.350;8.718;2022-08-21T03:41:13;14.85;97.73
69324;DHT22;56470;47.350;8.718;2022-08-21T03:43:38;14.94;97.41
69324;DHT22;56470;47.350;8.718;2022-08-21T03:46:05;15.05;97.14
69324;DHT22;56470;47.350;8.718;2022-08-21T03:48:31;15.13;96.97
69324;DHT22;56470;47.350;8.718;2022-08-21T03:50:57;15.16;96.95
69324;DHT22;56470;47.350;8.718;2022-08-21T03:53:23;15.18;97.01
69324;DHT22;56470;47.350;8.718;2022-08-21T03:55:50;15.13;96.88
69324;DHT22;56470;47.350;8.718;2022-08-21T03:58:19;15.18;97.04
69324;DHT22;56470;47.350;8.718;2022-08-21T04:00:47;15.25;96.97
69324;DHT22;56470;47.350;8.718;2022-08-21T04:03:13;15.23;96.95
69324;DHT22;56470;47.350;8.718;2022-08-21T04:05:38;15.03;96.96
69324;DHT22;56470;47.350;8.718;2022-08-21T04:08:05;14.96;97.11
69324;DHT22;56470;47.350;8.718;2022-08-21T04:10:34;14.89;97.44
69324;DHT22;56470;47.350;8.718;2022-08-21T04:12:59;14.84;98.05
69324;DHT22;56470;47.350;8.718;2022-08-21T04:15:26;14.85;98.32
69324;DHT22;56470;47.350;8.718;2022-08-21T04:17:51;14.80;98.61
69324;DHT22;56470;47.350;8.718;2022-08-21T04:20:18;14.81;98.56
69324;DHT22;56470;47.350;8.718;2022-08-21T04:22:44;14.85;98.62
69324;DHT22;56470;47.350;8.718;2022-08-21T04:25:10;14.89;98.60
69324;DHT22;56470;47.350;8.718;2022-08-21T04:27:35;14.94;98.48
69324;DHT22;56470;47.350;8.718;2022-08-21T04:30:01;14.98;98.40
69324;DHT22;56470;47.350;8.718;2022-08-21T04:32:27;14.87;98.06
69324;DHT22;56470;47.350;8.718;2022-08-21T04:35:09;14.94;98.16
69324;DHT22;56470;47.350;8.718;2022-08-21T04:37:35;14.88;97.97
69324;DHT22;56470;47.350;8.718;2022-08-21T04:40:02;14.88;97.98
69324;DHT22;56470;47.350;8.718;2022-08-21T04:42:27;14.96;97.95
69324;DHT22;56470;47.350;8.718;2022-08-21T04:44:54;14.95;97.88
69324;DHT22;56470;47.350;8.718;2022-08-21T04:47:20;14.91;97.85
69324;DHT22;56470;47.350;8.718;2022-08-21T04:49:46;14.87;97.78
69324;DHT22;56470;47.350;8.718;2022-08-21T04:52:13;14.80;97.19
69324;DHT22;56470;47.350;8.718;2022-08-21T04:54:39;14.73;97.05
69324;DHT22;56470;47.350;8.718;2022-08-21T04:57:07;14.66;97.27
69324;DHT22;56470;47.350;8.718;2022-08-21T04:59:38;14.70;97.13
69324;DHT22;56470;47.350;8.718;2022-08-21T05:02:06;14.83;96.56
69324;DHT22;56470;47.350;8.718;2022-08-21T05:04:33;14.98;95.82
69324;DHT22;56470;47.350;8.718;2022-08-21T05:07:02;15.08;94.71
69324;DHT22;56470;47.350;8.718;2022-08-21T05:09:30;15.20;94.31
69324;DHT22;56470;47.350;8.718;2022-08-21T05:11:56;15.39;94.01
69324;DHT22;56470;47.350;8.718;2022-08-21T05:14:21;15.56;93.46
69324;DHT22;56470;47.350;8.718;2022-08-21T05:16:47;15.63;92.77
69324;DHT22;56470;47.350;8.718;2022-08-21T05:19:12;15.85;92.07
69324;DHT22;56470;47.350;8.718;2022-08-21T05:21:41;16.30;90.43
69324;DHT22;56470;47.350;8.718;2022-08-21T05:24:06;16.60;89.18
69324;DHT22;56470;47.350;8.718;2022-08-21T05:26:32;17.01;87.12
69324;DHT22;56470;47.350;8.718;2022-08-21T05:28:58;17.63;84.58
69324;DHT22;56470;47.350;8.718;2022-08-21T05:31:24;18.30;82.12
69324;DHT22;56470;47.350;8.718;2022-08-21T05:33:49;18.88;79.41
69324;DHT22;56470;47.350;8.718;2022-08-21T05:36:16;18.92;78.73
69324;DHT22;56470;47.350;8.718;2022-08-21T05:38:42;19.24;77.45
69324;DHT22;56470;47.350;8.718;2022-08-21T05:41:08;19.64;75.77
69324;DHT22;56470;47.350;8.718;2022-08-21T05:43:34;19.20;76.98
69324;DHT22;56470;47.350;8.718;2022-08-21T05:46:04;19.66;75.89
69324;DHT22;56470;47.350;8.718;2022-08-21T05:48:31;19.81;75.39
69324;DHT22;56470;47.350;8.718;2022-08-21T05:50:56;20.37;73.56
69324;DHT22;56470;47.350;8.718;2022-08-21T05:53:23;20.78;71.62
69324;DHT22;56470;47.350;8.718;2022-08-21T05:55:48;20.18;73.51
69324;DHT22;56470;47.350;8.718;2022-08-21T05:58:16;21.65;70.25
69324;DHT22;56470;47.350;8.718;2022-08-21T06:00:42;21.82;69.29
69324;DHT22;56470;47.350;8.718;2022-08-21T06:03:23;21.10;71.36
69324;DHT22;56470;47.350;8.718;2022-08-21T06:05:52;20.70;72.89
69324;DHT22;56470;47.350;8.718;2022-08-21T06:08:19;20.26;74.48
69324;DHT22;56470;47.350;8.718;2022-08-21T06:10:46;20.71;73.62
69324;DHT22;56470;47.350;8.718;2022-08-21T06:13:14;21.29;71.83
69324;DHT22;56470;47.350;8.718;2022-08-21T06:15:40;21.50;71.07
69324;DHT22;56470;47.350;8.718;2022-08-21T06:18:05;21.54;71.14
69324;DHT22;56470;47.350;8.718;2022-08-21T06:20:31;21.78;70.78
69324;DHT22;56470;47.350;8.718;2022-08-21T06:22:57;22.10;69.52
69324;DHT22;56470;47.350;8.718;2022-08-21T06:25:22;22.10;69.37
69324;DHT22;56470;47.350;8.718;2022-08-21T06:27:48;21.67;70.94
69324;DHT22;56470;47.350;8.718;2022-08-21T06:30:14;21.75;70.27
69324;DHT22;56470;47.350;8.718;2022-08-21T06:32:39;22.51;68.61
69324;DHT22;56470;47.350;8.718;2022-08-21T06:35:05;23.08;67.27
69324;DHT22;56470;47.350;8.718;2022-08-21T06:37:31;23.26;65.66
69324;DHT22;56470;47.350;8.718;2022-08-21T06:39:56;23.27;66.13
69324;DHT22;56470;47.350;8.718;2022-08-21T06:42:22;23.13;66.87
69324;DHT22;56470;47.350;8.718;2022-08-21T06:44:47;23.13;66.76
69324;DHT22;56470;47.350;8.718;2022-08-21T06:47:13;23.38;65.93
69324;DHT22;56470;47.350;8.718;2022-08-21T06:49:38;23.42;65.62
69324;DHT22;56470;47.350;8.718;2022-08-21T06:52:08;23.19;65.93
69324;DHT22;56470;47.350;8.718;2022-08-21T06:54:34;23.64;65.41
69324;DHT22;56470;47.350;8.718;2022-08-21T06:56:59;23.91;65.17
69324;DHT22;56470;47.350;8.718;2022-08-21T06:59:24;22.95;67.19
69324;DHT22;56470;47.350;8.718;2022-08-21T07:01:50;22.60;69.26
69324;DHT22;56470;47.350;8.718;2022-08-21T07:04:15;22.26;69.89
69324;DHT22;56470;47.350;8.718;2022-08-21T07:06:40;22.36;69.66
69324;DHT22;56470;47.350;8.718;2022-08-21T07:09:06;23.40;67.04
69324;DHT22;56470;47.350;8.718;2022-08-21T07:11:31;22.90;68.01
69324;DHT22;56470;47.350;8.718;2022-08-21T07:13:56;22.68;68.81
69324;DHT22;56470;47.350;8.718;2022-08-21T07:16:24;21.95;70.65
69324;DHT22;56470;47.350;8.718;2022-08-21T07:18:49;21.65;71.41
69324;DHT22;56470;47.350;8.718;2022-08-21T07:21:15;21.18;73.38
69324;DHT22;56470;47.350;8.718;2022-08-21T07:23:45;22.08;70.84
69324;DHT22;56470;47.350;8.718;2022-08-21T07:26:12;23.63;65.53
69324;DHT22;56470;47.350;8.718;2022-08-21T07:28:38;24.82;62.23
69324;DHT22;56470;47.350;8.718;2022-08-21T07:31:04;25.75;58.63
69324;DHT22;56470;47.350;8.718;2022-08-21T07:33:32;25.36;60.21
69324;DHT22;56470;47.350;8.718;2022-08-21T07:35:58;24.77;62.34
69324;DHT22;56470;47.350;8.718;2022-08-21T07:38:24;25.42;60.04
69324;DHT22;56470;47.350;8.718;2022-08-21T07:40:51;23.78;63.99
69324;DHT22;56470;47.350;8.718;2022-08-21T07:43:17;25.33;59.87
69324;DHT22;56470;47.350;8.718;2022-08-21T07:45:43;25.80;57.95
69324;DHT22;56470;47.350;8.718;2022-08-21T07:48:09;26.02;57.33
69324;DHT22;56470;47.350;8.718;2022-08-21T07:50:35;26.06;57.42
69324;DHT22;56470;47.350;8.718;2022-08-21T07:53:01;26.14;56.23
69324;DHT22;56470;47.350;8.718;2022-08-21T07:55:27;26.88;54.87
69324;DHT22;56470;47.350;8.718;2022-08-21T07:57:53;26.71;56.15
69324;DHT22;56470;47.350;8.718;2022-08-21T08:00:22;27.73;53.63
69324;DHT22;56470;47.350;8.718;2022-08-21T08:02:50;28.02;51.59
69324;DHT22;56470;47.350;8.718;2022-08-21T08:05:19;28.19;52.53
69324;DHT22;56470;47.350;8.718;2022-08-21T08:07:45;26.94;55.46
69324;DHT22;56470;47.350;8.718;2022-08-21T08:10:11;27.12;54.56
69324;DHT22;56470;47.350;8.718;2022-08-21T08:12:39;27.68;53.29
69324;DHT22;56470;47.350;8.718;2022-08-21T08:15:08;26.97;55.12
69324;DHT22;56470;47.350;8.718;2022-08-21T08:17:34;26.63;56.75
69324;DHT22;56470;47.350;8.718;2022-08-21T08:19:59;27.60;54.05
69324;DHT22;56470;47.350;8.718;2022-08-21T08:22:27;27.43;53.87
69324;DHT22;56470;47.350;8.718;2022-08-21T08:24:53;27.06;55.24
69324;DHT22;56470;47.350;8.718;2022-08-21T08:27:20;26.99;56.17
69324;DHT22;56470;47.350;8.718;2022-08-21T08:29:46;27.12;55.72
69324;DHT22;56470;47.350;8.718;2022-08-21T08:32:12;27.35;55.25
69324;DHT22;56470;47.350;8.718;2022-08-21T08:34:38;27.19;55.78
69324;DHT22;56470;47.350;8.718;2022-08-21T08:37:04;27.02;56.44
69324;DHT22;56470;47.350;8.718;2022-08-21T08:39:30;26.81;56.01
69324;DHT22;56470;47.350;8.718;2022-08-21T08:42:05;26.63;56.59
69324;DHT22;56470;47.350;8.718;2022-08-21T08:44:31;26.80;56.13
69324;DHT22;56470;47.350;8.718;2022-08-21T08:46:57;27.47;54.85
69324;DHT22;56470;47.350;8.718;2022-08-21T08:49:36;28.00;53.75
69324;DHT22;56470;47.350;8.718;2022-08-21T08:52:29;27.56;55.31
69324;DHT22;56470;47.350;8.718;2022-08-21T08:55:09;27.76;54.02
69324;DHT22;56470;47.350;8.718;2022-08-21T08:57:37;27.39;55.89
69324;DHT22;56470;47.350;8.718;2022-08-21T09:00:08;27.61;55.45
69324;DHT22;56470;47.350;8.718;2022-08-21T09:02:38;27.87;54.41
69324;DHT22;56470;47.350;8.718;2022-08-21T09:05:05;27.56;55.14
69324;DHT22;56470;47.350;8.718;2022-08-21T09:10:45;28.32;53.14
69324;DHT22;56470;47.350;8.718;2022-08-21T09:13:26;27.57;55.12
69324;DHT22;56470;47.350;8.718;2022-08-21T09:16:03;28.18;53.70
69324;DHT22;56470;47.350;8.718;2022-08-21T09:18:42;27.59;54.94
69324;DHT22;56470;47.350;8.718;2022-08-21T09:24:00;28.13;53.94
69324;DHT22;56470;47.350;8.718;2022-08-21T09:26:34;28.33;53.49
69324;DHT22;56470;47.350;8.718;2022-08-21T09:29:01;28.31;53.70
69324;DHT22;56470;47.350;8.718;2022-08-21T09:34:05;27.84;54.52
69324;DHT22;56470;47.350;8.718;2022-08-21T09:36:45;28.46;53.23
69324;DHT22;56470;47.350;8.718;2022-08-21T09:39:21;29.00;51.46
69324;DHT22;56470;47.350;8.718;2022-08-21T09:41:56;29.91;50.07
69324;DHT22;56470;47.350;8.718;2022-08-21T09:44:25;28.88;51.70
69324;DHT22;56470;47.350;8.718;2022-08-21T09:46:51;28.61;52.78
69324;DHT22;56470;47.350;8.718;2022-08-21T09:49:30;28.81;51.73
69324;DHT22;56470;47.350;8.718;2022-08-21T09:52:00;29.40;50.86
69324;DHT22;56470;47.350;8.718;2022-08-21T09:54:30;30.11;49.20
69324;DHT22;56470;47.350;8.718;2022-08-21T09:56:59;29.76;45.75
69324;DHT22;56470;47.350;8.718;2022-08-21T09:59:45;28.29;49.34
69324;DHT22;56470;47.350;8.718;2022-08-21T10:02:31;27.26;51.15
69324;DHT22;56470;47.350;8.718;2022-08-21T10:04:59;28.56;49.06
69324;DHT22;56470;47.350;8.718;2022-08-21T10:07:27;28.84;48.10
69324;DHT22;56470;47.350;8.718;2022-08-21T10:10:29;29.98;45.48
69324;DHT22;56470;47.350;8.718;2022-08-21T10:15:42;28.80;47.55
69324;DHT22;56470;47.350;8.718;2022-08-21T10:18:13;28.91;47.22
69324;DHT22;56470;47.350;8.718;2022-08-21T10:29:16;26.63;52.04
69324;DHT22;56470;47.350;8.718;2022-08-21T10:45:14;27.02;49.65
69324;DHT22;56470;47.350;8.718;2022-08-21T10:47:46;26.78;50.24
69324;DHT22;56470;47.350;8.718;2022-08-21T10:53:09;26.73;49.90
69324;DHT22;56470;47.350;8.718;2022-08-21T10:55:50;27.51;48.46
69324;DHT22;56470;47.350;8.718;2022-08-21T10:58:29;27.97;46.62
69324;DHT22;56470;47.350;8.718;2022-08-21T11:01:05;28.39;46.03
69324;DHT22;56470;47.350;8.718;2022-08-21T11:03:38;28.05;46.09
69324;DHT22;56470;47.350;8.718;2022-08-21T11:06:13;28.83;44.58
69324;DHT22;56470;47.350;8.718;2022-08-21T11:08:43;28.55;44.80
69324;DHT22;56470;47.350;8.718;2022-08-21T11:11:26;28.43;45.12
69324;DHT22;56470;47.350;8.718;2022-08-21T11:14:00;28.59;44.47
69324;DHT22;56470;47.350;8.718;2022-08-21T11:16:39;26.60;48.73
69324;DHT22;56470;47.350;8.718;2022-08-21T11:19:15;26.95;48.51
69324;DHT22;56470;47.350;8.718;2022-08-21T11:21:46;27.38;47.69
69324;DHT22;56470;47.350;8.718;2022-08-21T11:27:15;27.16;47.92
69324;DHT22;56470;47.350;8.718;2022-08-21T11:29:50;27.29;48.00
69324;DHT22;56470;47.350;8.718;2022-08-21T11:44:18;28.87;42.35
69324;DHT22;56470;47.350;8.718;2022-08-21T11:47:08;28.83;42.93
69324;DHT22;56470;47.350;8.718;2022-08-21T11:49:59;28.13;43.44
69324;DHT22;56470;47.350;8.718;2022-08-21T11:52:37;28.78;43.82
69324;DHT22;56470;47.350;8.718;2022-08-21T11:55:10;29.07;42.61
69324;DHT22;56470;47.350;8.718;2022-08-21T11:57:59;29.43;42.03
69324;DHT22;56470;47.350;8.718;2022-08-21T12:00:33;29.53;41.54
69324;DHT22;56470;47.350;8.718;2022-08-21T12:03:28;29.05;41.68
69324;DHT22;56470;47.350;8.718;2022-08-21T12:06:00;28.29;43.82
69324;DHT22;56470;47.350;8.718;2022-08-21T12:08:32;27.63;44.14
69324;DHT22;56470;47.350;8.718;2022-08-21T12:14:11;27.15;45.77
69324;DHT22;56470;47.350;8.718;2022-08-21T12:16:46;27.88;44.12
69324;DHT22;56470;47.350;8.718;2022-08-21T12:24:32;27.98;49.44
69324;DHT22;56470;47.350;8.718;2022-08-21T12:27:12;27.81;47.01
69324;DHT22;56470;47.350;8.718;2022-08-21T12:29:38;27.50;46.81
69324;DHT22;56470;47.350;8.718;2022-08-21T12:34:45;27.04;46.42
69324;DHT22;56470;47.350;8.718;2022-08-21T12:37:34;26.87;47.10
69324;DHT22;56470;47.350;8.718;2022-08-21T12:40:03;26.84;46.18
69324;DHT22;56470;47.350;8.718;2022-08-21T12:42:41;26.77;47.50
69324;DHT22;56470;47.350;8.718;2022-08-21T12:45:23;26.61;46.18
69324;DHT22;56470;47.350;8.718;2022-08-21T12:47:58;26.46;47.75
69324;DHT22;56470;47.350;8.718;2022-08-21T12:50:52;26.36;47.84
69324;DHT22;56470;47.350;8.718;2022-08-21T12:53:47;26.42;47.85
69324;DHT22;56470;47.350;8.718;2022-08-21T12:56:16;26.44;47.36
69324;DHT22;56470;47.350;8.718;2022-08-21T12:58:48;26.49;47.49
69324;DHT22;56470;47.350;8.718;2022-08-21T13:01:24;26.46;47.24
69324;DHT22;56470;47.350;8.718;2022-08-21T13:03:53;26.52;47.39
69324;DHT22;56470;47.350;8.718;2022-08-21T13:06:20;26.54;47.53
69324;DHT22;56470;47.350;8.718;2022-08-21T13:08:47;26.40;47.38
69324;DHT22;56470;47.350;8.718;2022-08-21T13:11:18;26.22;47.27
69324;DHT22;56470;47.350;8.718;2022-08-21T13:13:51;26.11;47.03
69324;DHT22;56470;47.350;8.718;2022-08-21T13:16:24;25.87;47.69
69324;DHT22;56470;47.350;8.718;2022-08-21T13:19:26;25.77;48.24
69324;DHT22;56470;47.350;8.718;2022-08-21T13:21:45;25.67;47.91
69324;DHT22;56470;47.350;8.718;2022-08-21T13:26:42;25.43;48.45
69324;DHT22;56470;47.350;8.718;2022-08-21T13:29:10;25.30;47.49
69324;DHT22;56470;47.350;8.718;2022-08-21T13:31:37;25.27;48.14
69324;DHT22;56470;47.350;8.718;2022-08-21T13:34:05;25.22;47.72
69324;DHT22;56470;47.350;8.718;2022-08-21T13:36:35;25.20;47.97
69324;DHT22;56470;47.350;8.718;2022-08-21T13:39:04;25.16;49.15
69324;DHT22;56470;47.350;8.718;2022-08-21T13:41:33;25.08;48.75
69324;DHT22;56470;47.350;8.718;2022-08-21T13:44:06;25.14;48.81
69324;DHT22;56470;47.350;8.718;2022-08-21T13:46:38;25.22;48.23
69324;DHT22;56470;47.350;8.718;2022-08-21T13:49:05;25.36;48.74
69324;DHT22;56470;47.350;8.718;2022-08-21T13:51:31;25.47;48.90
69324;DHT22;56470;47.350;8.718;2022-08-21T13:53:57;25.56;48.73
69324;DHT22;56470;47.350;8.718;2022-08-21T13:58:48;25.47;48.80
69324;DHT22;56470;47.350;8.718;2022-08-21T14:01:49;25.50;48.70
69324;DHT22;56470;47.350;8.718;2022-08-21T14:04:22;25.54;49.08
69324;DHT22;56470;47.350;8.718;2022-08-21T14:06:50;25.56;48.26
69324;DHT22;56470;47.350;8.718;2022-08-21T14:09:28;25.57;47.94
69324;DHT22;56470;47.350;8.718;2022-08-21T14:11:55;25.50;47.96
69324;DHT22;56470;47.350;8.718;2022-08-21T14:14:27;25.49;46.72
69324;DHT22;56470;47.350;8.718;2022-08-21T14:16:58;25.53;47.88
69324;DHT22;56470;47.350;8.718;2022-08-21T14:19:28;25.44;48.30
69324;DHT22;56470;47.350;8.718;2022-08-21T14:22:00;25.43;48.00
69324;DHT22;56470;47.350;8.718;2022-08-21T14:24:29;25.50;47.05
69324;DHT22;56470;47.350;8.718;2022-08-21T14:29:25;25.69;47.37
69324;DHT22;56470;47.350;8.718;2022-08-21T14:31:57;25.69;46.38
69324;DHT22;56470;47.350;8.718;2022-08-21T14:34:27;25.73;46.36
69324;DHT22;56470;47.350;8.718;2022-08-21T14:36:54;25.67;46.93
69324;DHT22;56470;47.350;8.718;2022-08-21T14:39:20;25.70;46.34
69324;DHT22;56470;47.350;8.718;2022-08-21T14:41:46;25.70;46.27
69324;DHT22;56470;47.350;8.718;2022-08-21T14:44:14;25.78;45.53
69324;DHT22;56470;47.350;8.718;2022-08-21T14:46:39;25.74;47.98
69324;DHT22;56470;47.350;8.718;2022-08-21T14:49:05;25.78;46.07
69324;DHT22;56470;47.350;8.718;2022-08-21T14:51:30;25.82;45.29
69324;DHT22;56470;47.350;8.718;2022-08-21T14:53:56;25.95;44.74
69324;DHT22;56470;47.350;8.718;2022-08-21T14:56:22;25.99;44.43
69324;DHT22;56470;47.350;8.718;2022-08-21T14:58:49;25.87;43.93
69324;DHT22;56470;47.350;8.718;2022-08-21T15:01:18;25.82;44.20
69324;DHT22;56470;47.350;8.718;2022-08-21T15:03:45;25.75;45.51
69324;DHT22;56470;47.350;8.718;2022-08-21T15:06:11;25.66;45.74
69324;DHT22;56470;47.350;8.718;2022-08-21T15:08:37;25.50;45.89
69324;DHT22;56470;47.350;8.718;2022-08-21T15:11:04;25.36;45.41
69324;DHT22;56470;47.350;8.718;2022-08-21T15:13:30;25.25;45.78
69324;DHT22;56470;47.350;8.718;2022-08-21T15:15:56;25.20;45.29
69324;DHT22;56470;47.350;8.718;2022-08-21T15:18:25;25.20;45.29
69324;DHT22;56470;47.350;8.718;2022-08-21T15:20:51;25.25;45.44
69324;DHT22;56470;47.350;8.718;2022-08-21T15:23:16;25.26;45.46
69324;DHT22;56470;47.350;8.718;2022-08-21T15:25:43;25.25;45.33
69324;DHT22;56470;47.350;8.718;2022-08-21T15:28:10;25.04;45.02
69324;DHT22;56470;47.350;8.718;2022-08-21T15:30:38;25.04;44.89
69324;DHT22;56470;47.350;8.718;2022-08-21T15:33:04;24.99;45.05
69324;DHT22;56470;47.350;8.718;2022-08-21T15:35:29;24.96;45.45
69324;DHT22;56470;47.350;8.718;2022-08-21T15:37:55;24.98;44.75
69324;DHT22;56470;47.350;8.718;2022-08-21T15:40:20;24.87;44.66
69324;DHT22;56470;47.350;8.718;2022-08-21T15:42:46;24.88;45.00
69324;DHT22;56470;47.350;8.718;2022-08-21T15:45:12;24.94;45.21
69324;DHT22;56470;47.350;8.718;2022-08-21T15:47:42;24.98;44.91
69324;DHT22;56470;47.350;8.718;2022-08-21T15:50:09;24.96;44.97
69324;DHT22;56470;47.350;8.718;2022-08-21T15:52:36;25.01;45.17
69324;DHT22;56470;47.350;8.718;2022-08-21T15:55:02;25.05;45.59
69324;DHT22;56470;47.350;8.718;2022-08-21T15:57:28;25.01;45.20
69324;DHT22;56470;47.350;8.718;2022-08-21T15:59:57;24.91;45.24
69324;DHT22;56470;47.350;8.718;2022-08-21T16:02:29;24.90;45.45
69324;DHT22;56470;47.350;8.718;2022-08-21T16:04:55;24.87;45.43
69324;DHT22;56470;47.350;8.718;2022-08-21T16:07:21;24.87;45.25
69324;DHT22;56470;47.350;8.718;2022-08-21T16:09:46;24.87;45.53
69324;DHT22;56470;47.350;8.718;2022-08-21T16:12:17;24.98;45.45
69324;DHT22;56470;47.350;8.718;2022-08-21T16:14:44;25.07;44.96
69324;DHT22;56470;47.350;8.718;2022-08-21T16:17:10;25.04;44.69
69324;DHT22;56470;47.350;8.718;2022-08-21T16:19:36;24.98;45.12
69324;DHT22;56470;47.350;8.718;2022-08-21T16:22:02;24.87;45.40
69324;DHT22;56470;47.350;8.718;2022-08-21T16:24:27;24.84;45.29
69324;DHT22;56470;47.350;8.718;2022-08-21T16:26:54;24.77;45.19
69324;DHT22;56470;47.350;8.718;2022-08-21T16:29:21;24.75;45.11
69324;DHT22;56470;47.350;8.718;2022-08-21T16:31:48;24.74;44.47
69324;DHT22;56470;47.350;8.718;2022-08-21T16:34:17;24.70;44.58
69324;DHT22;56470;47.350;8.718;2022-08-21T16:36:43;24.64;44.92
69324;DHT22;56470;47.350;8.718;2022-08-21T16:39:08;24.63;45.01
69324;DHT22;56470;47.350;8.718;2022-08-21T16:41:34;24.64;45.34
69324;DHT22;56470;47.350;8.718;2022-08-21T16:44:01;24.67;45.03
69324;DHT22;56470;47.350;8.718;2022-08-21T16:46:33;24.64;45.23
69324;DHT22;56470;47.350;8.718;2022-08-21T16:48:58;24.64;45.21